Terminal Aerodrome Forecast
Issued by NWS Shreveport, LA

Home | Current Version | Previous Version | Text Only | Print | Product List | Glossary On
Versions: 1 2 3 4 5 6 7 8 9 10 11 12 13 14 15 16 17 18 19 20 21 22 23 24 25 26 27
703
FTUS44 KSHV 181144
TAFMLU
TAF
KMLU 181144Z 1812/1912 07006KT P6SM BKN013 BKN050 OVC070
      TEMPO 1812/1814 3SM -DZ OVC007
     FM181400 VRB05KT 4SM -DZ BR OVC007
     FM181700 13006KT 6SM BR OVC007
     FM182100 17006KT P6SM OVC015
     FM190900 18004KT 4SM BR BKN015=

USA.gov is the U.S. government's official web portal to all federal, state and local government web resources and services.